createdAt,value
2018-09-11T00:00:53.609Z,1018.65
2018-09-11T00:01:53.645Z,1018.66
2018-09-11T00:02:53.672Z,1018.68
2018-09-11T00:03:53.753Z,1018.67
2018-09-11T00:04:54.039Z,1018.65
2018-09-11T00:05:53.818Z,1018.67
2018-09-11T00:06:53.803Z,1018.69
2018-09-11T00:07:53.832Z,1018.71
2018-09-11T00:08:53.915Z,1018.70
2018-09-11T00:09:53.901Z,1018.67
2018-09-11T00:10:53.924Z,1018.72
2018-09-11T00:11:54.260Z,1018.72
2018-09-11T00:12:53.988Z,1018.75
2018-09-11T00:13:54.076Z,1018.78
2018-09-11T00:14:54.101Z,1018.75
2018-09-11T00:15:54.139Z,1018.75
2018-09-11T00:16:54.122Z,1018.77
2018-09-11T00:17:54.455Z,1018.76
2018-09-11T00:18:54.180Z,1018.74
2018-09-11T00:19:54.265Z,1018.73
2018-09-11T00:20:54.244Z,1018.77
2018-09-11T00:21:54.280Z,1018.76
2018-09-11T00:22:54.306Z,1018.72
2018-09-11T00:23:54.647Z,1018.76
2018-09-11T00:24:54.425Z,1018.70
2018-09-11T00:25:54.453Z,1018.73
2018-09-11T00:26:54.440Z,1018.70
2018-09-11T00:27:54.465Z,1018.70
2018-09-11T00:28:54.499Z,1018.68
2018-09-11T00:29:54.879Z,1018.66
2018-09-11T00:30:54.611Z,1018.67
2018-09-11T00:31:54.646Z,1018.68
2018-09-11T00:32:54.624Z,1018.67
2018-09-11T00:33:54.714Z,1018.74
2018-09-11T00:34:54.688Z,1018.71
2018-09-11T00:35:54.771Z,1018.71
2018-09-11T00:36:55.051Z,1018.69
2018-09-11T00:37:54.840Z,1018.70
2018-09-11T00:38:54.817Z,1018.71
2018-09-11T00:39:54.847Z,1018.69
2018-09-11T00:40:54.929Z,1018.71
2018-09-11T00:41:54.962Z,1018.72
2018-09-11T00:42:54.943Z,1018.73
2018-09-11T00:43:55.326Z,1018.71
2018-09-11T00:44:55.007Z,1018.69
2018-09-11T00:45:55.089Z,1018.70
2018-09-11T00:46:55.117Z,1018.71
2018-09-11T00:47:55.154Z,1018.72
2018-09-11T00:48:55.184Z,1018.71
2018-09-11T00:49:55.214Z,1018.73
2018-09-11T00:50:55.497Z,1018.75
2018-09-11T00:51:55.293Z,1018.72
2018-09-11T00:52:55.314Z,1018.76
2018-09-11T00:53:55.341Z,1018.74
2018-09-11T00:55:55.408Z,1018.77
2018-09-11T00:56:55.387Z,1018.76
2018-09-11T00:57:55.718Z,1018.74
2018-09-11T00:58:55.498Z,1018.73
2018-09-11T00:59:55.530Z,1018.69
2018-09-11T01:00:55.512Z,1018.70
2018-09-11T01:01:55.604Z,1018.70
2018-09-11T01:02:55.575Z,1018.65
2018-09-11T01:03:55.610Z,1018.65
2018-09-11T01:04:55.943Z,1018.61
2018-09-11T01:05:55.724Z,1018.60
2018-09-11T01:06:55.701Z,1018.62
2018-09-11T01:07:55.745Z,1018.62
2018-09-11T01:08:55.819Z,1018.63
2018-09-11T01:09:55.851Z,1018.61
2018-09-11T01:10:55.828Z,1018.60
2018-09-11T01:12:56.201Z,1018.59
2018-09-11T01:13:55.976Z,1018.60
2018-09-11T01:14:56.009Z,1018.62
2018-09-11T01:15:56.038Z,1018.64
2018-09-11T01:16:56.071Z,1018.69
2018-09-11T01:17:56.101Z,1018.66
2018-09-11T01:18:56.090Z,1018.67
2018-09-11T01:19:56.416Z,1018.69
2018-09-11T01:20:56.198Z,1018.64
2018-09-11T01:22:56.208Z,1018.63
2018-09-11T01:23:56.244Z,1018.60
2018-09-11T01:24:56.324Z,1018.61
2018-09-11T01:25:56.360Z,1018.61
2018-09-11T01:26:56.636Z,1018.55
2018-09-11T01:27:56.419Z,1018.59
2018-09-11T01:28:56.453Z,1018.57
2018-09-11T01:29:56.489Z,1018.51
2018-09-11T01:30:56.533Z,1018.54
2018-09-11T01:31:56.496Z,1018.56
2018-09-11T01:32:56.580Z,1018.56
2018-09-11T01:34:56.890Z,1018.57
2018-09-11T01:35:56.625Z,1018.54
2018-09-11T01:36:56.654Z,1018.57
2018-09-11T01:37:56.738Z,1018.55
2018-09-11T01:38:56.769Z,1018.56
2018-09-11T01:39:56.755Z,1018.55
2018-09-11T01:40:56.780Z,1018.58
2018-09-11T01:41:57.113Z,1018.58
2018-09-11T01:42:56.901Z,1018.54
2018-09-11T01:44:56.913Z,1018.57
2018-09-11T01:45:56.990Z,1018.55
2018-09-11T01:46:57.024Z,1018.56
2018-09-11T01:47:57.006Z,1018.49
2018-09-11T01:48:57.335Z,1018.50
2018-09-11T01:49:57.115Z,1018.50
2018-09-11T01:50:57.100Z,1018.46
2018-09-11T01:51:57.178Z,1018.43
2018-09-11T01:52:57.168Z,1018.40
2018-09-11T01:53:57.242Z,1018.38
2018-09-11T01:54:57.228Z,1018.38
2018-09-11T01:55:57.608Z,1018.35
2018-09-11T01:56:57.338Z,1018.34
2018-09-11T01:57:57.318Z,1018.32
2018-09-11T01:58:57.347Z,1018.34
2018-09-11T01:59:57.488Z,1018.27
2018-09-11T02:00:57.412Z,1018.29
2018-09-11T02:01:57.495Z,1018.31
2018-09-11T02:02:57.777Z,1018.28
2018-09-11T02:03:57.506Z,1018.26
2018-09-11T02:04:57.602Z,1018.27
2018-09-11T02:05:57.623Z,1018.27
2018-09-11T02:06:57.604Z,1018.27
2018-09-11T02:08:57.667Z,1018.30
2018-09-11T02:09:58.051Z,1018.31
2018-09-11T02:10:57.783Z,1018.33
2018-09-11T02:11:57.765Z,1018.28
2018-09-11T02:12:57.792Z,1018.28
2018-09-11T02:13:57.881Z,1018.29
2018-09-11T02:14:57.916Z,1018.29
2018-09-11T02:15:57.938Z,1018.29
2018-09-11T02:16:58.221Z,1018.27
2018-09-11T02:17:58.001Z,1018.29
2018-09-11T02:18:57.981Z,1018.28
2018-09-11T02:19:58.062Z,1018.30
2018-09-11T02:20:58.095Z,1018.28
2018-09-11T02:21:58.130Z,1018.28
2018-09-11T02:22:58.160Z,1018.31
2018-09-11T02:23:58.489Z,1018.31
2018-09-11T02:24:58.174Z,1018.33
2018-09-11T02:25:58.255Z,1018.30
2018-09-11T02:26:58.283Z,1018.33
2018-09-11T02:27:58.265Z,1018.35
2018-09-11T02:28:58.302Z,1018.39
2018-09-11T02:29:58.327Z,1018.37
2018-09-11T02:30:58.716Z,1018.37
2018-09-11T02:31:58.397Z,1018.41
2018-09-11T02:32:58.423Z,1018.39
2018-09-11T02:33:58.505Z,1018.38
2018-09-11T02:34:58.488Z,1018.34
2018-09-11T02:35:58.571Z,1018.34
2018-09-11T02:36:58.558Z,1018.34
2018-09-11T02:37:58.931Z,1018.34
2018-09-11T02:38:58.661Z,1018.36
2018-09-11T02:39:58.644Z,1018.36
2018-09-11T02:40:58.675Z,1018.34
2018-09-11T02:41:58.758Z,1018.32
2018-09-11T02:42:58.794Z,1018.31
2018-09-11T02:43:58.769Z,1018.32
2018-09-11T02:44:59.153Z,1018.35
2018-09-11T02:45:58.883Z,1018.33
2018-09-11T02:46:58.865Z,1018.35
2018-09-11T02:47:58.948Z,1018.35
2018-09-11T02:48:58.933Z,1018.36
2018-09-11T02:49:58.965Z,1018.37
2018-09-11T02:50:59.043Z,1018.40
2018-09-11T02:51:59.371Z,1018.39
2018-09-11T02:52:59.105Z,1018.42
2018-09-11T02:53:59.138Z,1018.40
2018-09-11T02:54:59.169Z,1018.44
2018-09-11T02:55:59.150Z,1018.48
2018-09-11T02:56:59.180Z,1018.47
2018-09-11T02:57:59.263Z,1018.46
2018-09-11T02:58:59.543Z,1018.48
2018-09-11T02:59:59.327Z,1018.48
2018-09-11T03:00:59.354Z,1018.47
2018-09-11T03:01:59.337Z,1018.48
2018-09-11T03:02:59.422Z,1018.52
2018-09-11T03:03:59.398Z,1018.49
2018-09-11T03:04:59.734Z,1018.51
2018-09-11T03:05:59.511Z,1018.55
2018-09-11T03:06:59.544Z,1018.54
2018-09-11T03:07:59.576Z,1018.53
2018-09-11T03:08:59.557Z,1018.55
2018-09-11T03:09:59.637Z,1018.56
2018-09-11T03:10:59.969Z,1018.57
2018-09-11T03:13:59.765Z,1018.55
2018-09-11T03:14:59.794Z,1018.50
2018-09-11T03:15:59.825Z,1018.52
2018-09-11T03:17:00.110Z,1018.51
2018-09-11T03:17:59.896Z,1018.54
2018-09-11T03:19:00.044Z,1018.49
2018-09-11T03:19:59.965Z,1018.49
2018-09-11T03:20:59.932Z,1018.53
2018-09-11T03:22:00.017Z,1018.52
2018-09-11T03:24:00.080Z,1018.50
2018-09-11T03:25:00.364Z,1018.53
2018-09-11T03:26:00.146Z,1018.53
2018-09-11T03:27:00.120Z,1018.52
2018-09-11T03:28:00.153Z,1018.49
2018-09-11T03:29:00.240Z,1018.47
2018-09-11T03:30:00.271Z,1018.48
2018-09-11T03:31:00.550Z,1018.50
2018-09-11T03:32:00.401Z,1018.49
2018-09-11T03:33:00.367Z,1018.48
2018-09-11T03:34:00.391Z,1018.55
2018-09-11T03:35:00.375Z,1018.58
2018-09-11T03:36:00.406Z,1018.58
2018-09-11T03:37:00.439Z,1018.61
2018-09-11T03:38:00.821Z,1018.59
2018-09-11T03:39:00.552Z,1018.57
2018-09-11T03:40:00.531Z,1018.64
2018-09-11T03:41:00.568Z,1018.61
2018-09-11T03:42:00.643Z,1018.57
2018-09-11T03:43:00.673Z,1018.60
2018-09-11T03:44:00.675Z,1018.55
2018-09-11T03:45:00.991Z,1018.57
2018-09-11T03:46:00.718Z,1018.58
2018-09-11T03:47:00.803Z,1018.58
2018-09-11T03:48:00.785Z,1018.57
2018-09-11T03:49:00.864Z,1018.59
2018-09-11T03:50:00.894Z,1018.58
2018-09-11T03:51:00.877Z,1018.60
2018-09-11T03:52:01.206Z,1018.57
2018-09-11T03:53:00.939Z,1018.61
2018-09-11T03:54:01.018Z,1018.62
2018-09-11T03:55:01.050Z,1018.62
2018-09-11T03:56:01.032Z,1018.60
2018-09-11T03:57:01.063Z,1018.59
2018-09-11T03:58:01.094Z,1018.58
2018-09-11T03:59:01.430Z,1018.58
2018-09-11T04:00:01.210Z,1018.61
2018-09-11T04:01:01.192Z,1018.61
2018-09-11T04:02:01.279Z,1018.68
2018-09-11T04:03:01.255Z,1018.64
2018-09-11T04:04:01.285Z,1018.67
2018-09-11T04:05:01.365Z,1018.66
2018-09-11T04:06:01.647Z,1018.69
2018-09-11T04:07:01.390Z,1018.67
2018-09-11T04:08:01.432Z,1018.66
2018-09-11T04:09:01.488Z,1018.66
2018-09-11T04:10:01.524Z,1018.71
2018-09-11T04:11:01.506Z,1018.70
2018-09-11T04:12:01.536Z,1018.71
2018-09-11T04:13:01.866Z,1018.71
2018-09-11T04:14:01.595Z,1018.73
2018-09-11T04:15:01.679Z,1018.69
2018-09-11T04:16:01.683Z,1018.74
2018-09-11T04:17:01.742Z,1018.69
2018-09-11T04:18:01.777Z,1018.72
2018-09-11T04:19:01.802Z,1018.68
2018-09-11T04:20:02.135Z,1018.71
2018-09-11T04:21:01.816Z,1018.74
2018-09-11T04:22:01.904Z,1018.75
2018-09-11T04:23:01.887Z,1018.73
2018-09-11T04:24:01.911Z,1018.77
2018-09-11T04:25:01.999Z,1018.71
2018-09-11T04:26:02.022Z,1018.72
2018-09-11T04:27:02.309Z,1018.75
2018-09-11T04:28:02.037Z,1018.78
2018-09-11T04:29:02.069Z,1018.78
2018-09-11T04:30:02.098Z,1018.79
2018-09-11T04:31:02.187Z,1018.77
2018-09-11T04:32:02.163Z,1018.78
2018-09-11T04:33:02.243Z,1018.77
2018-09-11T04:34:02.530Z,1018.81
2018-09-11T04:35:02.255Z,1018.75
2018-09-11T04:36:02.338Z,1018.78
2018-09-11T04:37:02.321Z,1018.78
2018-09-11T04:38:02.410Z,1018.82
2018-09-11T04:39:02.380Z,1018.77
2018-09-11T04:40:02.459Z,1018.77
2018-09-11T04:41:02.749Z,1018.78
2018-09-11T04:42:02.473Z,1018.75
2018-09-11T04:43:02.560Z,1018.73
2018-09-11T04:44:02.541Z,1018.76
2018-09-11T04:45:02.617Z,1018.75
2018-09-11T04:46:02.652Z,1018.72
2018-09-11T04:47:02.980Z,1018.74
2018-09-11T04:48:02.661Z,1018.72
2018-09-11T04:49:02.695Z,1018.70
2018-09-11T04:51:02.767Z,1018.72
2018-09-11T04:52:02.791Z,1018.72
2018-09-11T04:53:03.124Z,1018.65
2018-09-11T04:54:02.911Z,1018.67
2018-09-11T04:55:02.967Z,1018.68
2018-09-11T04:56:03.032Z,1018.68
2018-09-11T04:57:02.943Z,1018.65
2018-09-11T04:58:03.028Z,1018.66
2018-09-11T04:59:03.358Z,1018.65
2018-09-11T05:00:03.090Z,1018.62
2018-09-11T05:01:03.109Z,1018.67
2018-09-11T05:02:03.154Z,1018.65
2018-09-11T05:03:03.135Z,1018.65
2018-09-11T05:04:03.221Z,1018.68
2018-09-11T05:05:03.199Z,1018.68
2018-09-11T05:06:03.529Z,1018.67
2018-09-11T05:07:03.259Z,1018.67
2018-09-11T05:08:03.288Z,1018.66
2018-09-11T05:09:03.378Z,1018.67
2018-09-11T05:10:03.403Z,1018.65
2018-09-11T05:11:03.387Z,1018.66
2018-09-11T05:12:03.469Z,1018.59
2018-09-11T05:13:03.755Z,1018.57
2018-09-11T05:14:03.553Z,1018.62
2018-09-11T05:15:03.512Z,1018.63
2018-09-11T05:16:03.588Z,1018.60
2018-09-11T05:17:03.576Z,1018.58
2018-09-11T05:18:03.651Z,1018.62
2018-09-11T05:19:03.699Z,1018.59
2018-09-11T05:20:03.972Z,1018.58
2018-09-11T05:21:03.699Z,1018.55
2018-09-11T05:22:03.785Z,1018.54
2018-09-11T05:23:03.814Z,1018.62
2018-09-11T05:24:03.839Z,1018.60
2018-09-11T05:25:03.846Z,1018.61
2018-09-11T05:26:03.904Z,1018.61
2018-09-11T05:27:04.190Z,1018.57
2018-09-11T05:28:03.914Z,1018.54
2018-09-11T05:29:03.997Z,1018.55
2018-09-11T05:30:04.028Z,1018.56
2018-09-11T05:31:04.016Z,1018.55
2018-09-11T05:32:04.050Z,1018.57
2018-09-11T05:33:04.073Z,1018.55
2018-09-11T05:34:04.412Z,1018.57
2018-09-11T05:35:04.184Z,1018.54
2018-09-11T05:37:04.249Z,1018.58
2018-09-11T05:38:04.281Z,1018.62
2018-09-11T05:39:04.381Z,1018.59
2018-09-11T05:40:04.357Z,1018.59
2018-09-11T05:41:04.624Z,1018.60
2018-09-11T05:43:04.437Z,1018.58
2018-09-11T05:44:04.419Z,1018.58
2018-09-11T05:45:04.450Z,1018.61
2018-09-11T05:46:04.535Z,1018.59
2018-09-11T05:47:04.571Z,1018.62
2018-09-11T05:48:04.843Z,1018.63
2018-09-11T05:49:04.577Z,1018.65
2018-09-11T05:50:04.667Z,1018.59
2018-09-11T05:51:04.685Z,1018.62
2018-09-11T05:52:04.667Z,1018.63
2018-09-11T05:53:04.756Z,1018.62
2018-09-11T05:54:04.793Z,1018.62
2018-09-11T05:55:05.063Z,1018.63
2018-09-11T05:56:04.793Z,1018.61
2018-09-11T05:57:04.825Z,1018.63
2018-09-11T05:58:04.928Z,1018.56
2018-09-11T05:59:04.940Z,1018.61
2018-09-11T06:00:04.975Z,1018.58
2018-09-11T06:01:04.963Z,1018.54
2018-09-11T06:02:05.283Z,1018.58
2018-09-11T06:03:05.038Z,1018.59
2018-09-11T06:04:05.051Z,1018.60
2018-09-11T06:05:05.126Z,1018.61
2018-09-11T06:06:05.170Z,1018.58
2018-09-11T06:07:05.140Z,1018.58
2018-09-11T06:08:05.174Z,1018.60
2018-09-11T06:09:05.514Z,1018.58
2018-09-11T06:10:05.284Z,1018.63
2018-09-11T06:11:05.315Z,1018.59
2018-09-11T06:12:05.302Z,1018.64
2018-09-11T06:13:05.327Z,1018.64
2018-09-11T06:14:05.418Z,1018.64
2018-09-11T06:15:05.445Z,1018.64
2018-09-11T06:16:05.725Z,1018.61
2018-09-11T06:17:05.468Z,1018.66
2018-09-11T06:18:05.535Z,1018.65
2018-09-11T06:19:05.526Z,1018.66
2018-09-11T06:22:05.662Z,1018.69
2018-09-11T06:23:05.995Z,1018.72
2018-09-11T06:24:05.726Z,1018.74
2018-09-11T06:25:05.721Z,1018.77
2018-09-11T06:26:05.739Z,1018.78
2018-09-11T06:27:05.816Z,1018.76
2018-09-11T06:28:05.850Z,1018.78
2018-09-11T06:29:05.923Z,1018.82
2018-09-11T06:30:06.168Z,1018.81
2018-09-11T06:31:05.944Z,1018.79
2018-09-11T06:32:05.977Z,1018.77
2018-09-11T06:33:06.001Z,1018.80
2018-09-11T06:34:06.043Z,1018.75
2018-09-11T06:35:06.025Z,1018.79
2018-09-11T06:36:06.359Z,1018.83
2018-09-11T06:37:06.087Z,1018.82
2018-09-11T06:38:06.165Z,1018.85
2018-09-11T06:39:06.161Z,1018.82
2018-09-11T06:40:06.227Z,1018.83
2018-09-11T06:41:06.292Z,1018.83
2018-09-11T06:42:06.541Z,1018.81
2018-09-11T06:43:06.327Z,1018.82
2018-09-11T06:44:06.305Z,1018.84
2018-09-11T06:45:06.347Z,1018.78
2018-09-11T06:46:06.423Z,1018.82
2018-09-11T06:47:06.495Z,1018.82
2018-09-11T06:48:06.731Z,1018.81
2018-09-11T06:49:06.472Z,1018.80
2018-09-11T06:50:06.547Z,1018.82
2018-09-11T06:51:06.577Z,1018.82
2018-09-11T06:52:06.564Z,1018.81
2018-09-11T06:53:06.588Z,1018.80
2018-09-11T06:54:06.677Z,1018.79
2018-09-11T06:55:06.953Z,1018.84
2018-09-11T06:56:06.698Z,1018.84
2018-09-11T06:57:06.715Z,1018.85
2018-09-11T06:58:06.748Z,1018.85
2018-09-11T06:59:06.937Z,1018.84
2018-09-11T07:00:06.816Z,1018.84
2018-09-11T07:01:06.891Z,1018.84
2018-09-11T07:02:07.198Z,1018.78
2018-09-11T07:03:06.918Z,1018.78
2018-09-11T07:04:06.989Z,1018.81
2018-09-11T07:05:07.019Z,1018.81
2018-09-11T07:06:07.001Z,1018.79
2018-09-11T07:07:07.032Z,1018.79
2018-09-11T07:08:07.066Z,1018.81
2018-09-11T07:09:07.396Z,1018.79
2018-09-11T07:10:07.181Z,1018.83
2018-09-11T07:11:07.208Z,1018.82
2018-09-11T07:12:07.197Z,1018.82
2018-09-11T07:13:07.449Z,1018.82
2018-09-11T07:14:07.308Z,1018.86
2018-09-11T07:15:07.335Z,1018.86
2018-09-11T07:16:07.632Z,1018.88
2018-09-11T07:17:07.406Z,1018.81
2018-09-11T07:18:07.438Z,1018.83
2018-09-11T07:19:07.412Z,1018.83
2018-09-11T07:20:07.552Z,1018.80
2018-09-11T07:21:07.538Z,1018.86
2018-09-11T07:22:07.511Z,1018.87
2018-09-11T07:23:07.845Z,1018.86
2018-09-11T07:24:07.574Z,1018.88
2018-09-11T07:25:07.604Z,1018.86
2018-09-11T07:26:07.771Z,1018.83
2018-09-11T07:27:07.719Z,1018.84
2018-09-11T07:28:07.751Z,1018.91
2018-09-11T07:29:07.734Z,1018.88
2018-09-11T07:30:08.067Z,1018.88
2018-09-11T07:31:07.847Z,1018.89
2018-09-11T07:32:07.833Z,1018.90
2018-09-11T07:33:07.911Z,1018.92
2018-09-11T07:34:07.941Z,1018.94
2018-09-11T07:35:07.975Z,1018.96
2018-09-11T07:36:07.958Z,1018.92
2018-09-11T07:37:08.297Z,1018.91
2018-09-11T07:38:08.022Z,1018.89
2018-09-11T07:39:08.103Z,1018.86
2018-09-11T07:40:08.135Z,1018.88
2018-09-11T07:41:08.116Z,1018.91
2018-09-11T07:42:08.199Z,1018.89
2018-09-11T07:43:08.241Z,1018.95
2018-09-11T07:44:08.588Z,1018.94
2018-09-11T07:45:08.245Z,1018.91
2018-09-11T07:46:08.328Z,1018.90
2018-09-11T07:47:08.378Z,1018.94
2018-09-11T07:48:08.342Z,1018.92
2018-09-11T07:49:08.423Z,1018.96
2018-09-11T07:50:08.504Z,1018.97
2018-09-11T07:51:08.736Z,1018.99
2018-09-11T07:52:08.468Z,1018.97
2018-09-11T07:53:08.567Z,1018.99
2018-09-11T07:54:08.589Z,1018.97
2018-09-11T07:55:08.624Z,1018.98
2018-09-11T07:56:08.649Z,1018.98
2018-09-11T07:57:08.679Z,1019.02
2018-09-11T07:58:09.061Z,1019.05
2018-09-11T07:59:08.753Z,1019.06
2018-09-11T08:00:08.733Z,1019.03
2018-09-11T08:01:08.831Z,1019.05
2018-09-11T08:02:08.876Z,1019.07
2018-09-11T08:03:08.949Z,1019.04
2018-09-11T08:04:08.856Z,1019.10
2018-09-11T08:05:09.236Z,1019.16
2018-09-11T08:06:08.921Z,1019.09
2018-09-11T08:07:09.006Z,1019.08
2018-09-11T08:08:09.034Z,1019.11
2018-09-11T08:09:09.071Z,1019.04
2018-09-11T08:10:09.101Z,1019.02
2018-09-11T08:11:09.088Z,1019.02
2018-09-11T08:12:09.435Z,1018.98
2018-09-11T08:13:09.199Z,1019.00
2018-09-11T08:14:09.177Z,1019.00
2018-09-11T08:15:09.238Z,1019.00
2018-09-11T08:16:09.294Z,1018.98
2018-09-11T08:17:09.276Z,1018.96
2018-09-11T08:18:09.308Z,1018.96
2018-09-11T08:19:09.649Z,1018.98
2018-09-11T08:20:09.374Z,1018.97
2018-09-11T08:21:09.498Z,1019.02
2018-09-11T08:22:09.493Z,1018.95
2018-09-11T08:23:09.520Z,1018.96
2018-09-11T08:24:09.503Z,1018.96
2018-09-11T08:25:09.838Z,1018.98
2018-09-11T08:26:09.618Z,1019.01
2018-09-11T08:27:09.652Z,1019.00
2018-09-11T08:28:09.642Z,1018.97
2018-09-11T08:29:09.773Z,1018.94
2018-09-11T08:30:09.746Z,1019.02
2018-09-11T08:31:10.031Z,1018.98
2018-09-11T08:32:09.812Z,1019.01
2018-09-11T08:33:09.797Z,1019.08
2018-09-11T08:34:09.878Z,1019.01
2018-09-11T08:35:09.864Z,1019.03
2018-09-11T08:36:09.943Z,1019.01
2018-09-11T08:37:10.280Z,1019.01
2018-09-11T08:38:10.005Z,1019.03
2018-09-11T08:39:09.990Z,1019.03
2018-09-11T08:40:10.095Z,1018.99
2018-09-11T08:41:10.147Z,1019.03
2018-09-11T08:42:10.139Z,1018.96
2018-09-11T08:43:10.169Z,1019.02
2018-09-11T08:44:10.451Z,1019.03
2018-09-11T08:45:10.182Z,1019.04
2018-09-11T08:46:10.268Z,1018.97
2018-09-11T08:47:10.296Z,1018.93
2018-09-11T08:48:10.341Z,1019.01
2018-09-11T08:49:10.410Z,1019.00
2018-09-11T08:50:10.397Z,1018.89
2018-09-11T08:51:10.681Z,1018.90
2018-09-11T08:53:10.496Z,1018.86
2018-09-11T08:54:10.543Z,1018.91
2018-09-11T08:55:10.557Z,1018.96
2018-09-11T08:56:10.540Z,1018.90
2018-09-11T08:57:10.622Z,1018.98
2018-09-11T08:58:10.915Z,1018.90
2018-09-11T09:00:10.670Z,1018.78
2018-09-11T09:01:10.764Z,1018.75
2018-09-11T09:02:10.738Z,1018.79
2018-09-11T09:03:10.820Z,1018.79
2018-09-11T09:04:10.801Z,1018.82
2018-09-11T09:05:11.136Z,1018.84
2018-09-11T09:06:10.917Z,1018.87
2018-09-11T09:09:11.016Z,1018.83
2018-09-11T09:10:11.167Z,1018.78
2018-09-11T09:11:11.029Z,1018.80
2018-09-11T09:12:11.464Z,1018.90
2018-09-11T09:13:11.104Z,1018.85
2018-09-11T09:14:11.182Z,1018.92
2018-09-11T09:15:11.216Z,1018.89
2018-09-11T09:16:11.243Z,1018.81
2018-09-11T09:17:11.235Z,1018.82
2018-09-11T09:18:11.258Z,1018.90
2018-09-11T09:19:11.645Z,1018.91
2018-09-11T09:20:11.324Z,1018.88
2018-09-11T09:21:11.372Z,1018.89
2018-09-11T09:22:11.452Z,1018.98
2018-09-11T09:23:11.480Z,1018.78
2018-09-11T09:24:11.454Z,1018.94
2018-09-11T09:25:11.493Z,1018.94
2018-09-11T09:26:11.823Z,1018.76
2018-09-11T09:27:11.668Z,1018.68
2018-09-11T09:28:11.643Z,1018.69
2018-09-11T09:29:11.633Z,1018.74
2018-09-11T09:30:11.717Z,1018.67
2018-09-11T09:31:11.737Z,1018.53
2018-09-11T09:32:11.737Z,1018.73
2018-09-11T09:33:12.076Z,1018.74
2018-09-11T09:34:11.835Z,1018.66
2018-09-11T09:35:11.869Z,1018.69
2018-09-11T09:36:11.900Z,1018.62
2018-09-11T09:37:11.886Z,1018.63
2018-09-11T09:38:11.990Z,1018.66
2018-09-11T09:39:11.997Z,1018.70
2018-09-11T09:40:12.280Z,1018.64
2018-09-11T09:41:12.067Z,1018.67
2018-09-11T09:42:12.098Z,1018.63
2018-09-11T09:43:12.128Z,1018.67
2018-09-11T09:44:12.176Z,1018.64
2018-09-11T09:45:12.150Z,1018.66
2018-09-11T09:46:12.239Z,1018.61
2018-09-11T09:47:12.519Z,1018.61
2018-09-11T09:48:12.295Z,1018.66
2018-09-11T09:49:12.288Z,1018.59
2018-09-11T09:50:12.315Z,1018.63
2018-09-11T09:51:12.369Z,1018.64
2018-09-11T09:52:12.393Z,1018.61
2018-09-11T09:53:12.462Z,1018.59
2018-09-11T09:54:12.754Z,1018.57
2018-09-11T09:55:12.482Z,1018.55
2018-09-11T09:56:12.555Z,1018.55
2018-09-11T09:57:12.593Z,1018.56
2018-09-11T09:58:12.629Z,1018.53
2018-09-11T09:59:12.611Z,1018.54
2018-09-11T10:00:12.697Z,1018.55
2018-09-11T10:01:12.996Z,1018.60
2018-09-11T10:02:12.753Z,1018.57
2018-09-11T10:03:12.787Z,1018.57
2018-09-11T10:04:12.826Z,1018.58
2018-09-11T10:05:12.802Z,1018.60
2018-09-11T10:06:12.889Z,1018.68
2018-09-11T10:07:13.242Z,1018.64
2018-09-11T10:08:12.904Z,1018.69
2018-09-11T10:09:12.941Z,1018.72
2018-09-11T10:10:13.019Z,1018.72
2018-09-11T10:11:13.005Z,1018.77
2018-09-11T10:12:13.097Z,1018.67
2018-09-11T10:13:13.376Z,1018.70
2018-09-11T10:14:13.151Z,1018.76
2018-09-11T10:15:13.136Z,1018.71
2018-09-11T10:16:13.166Z,1018.77
2018-09-11T10:17:13.248Z,1018.79
2018-09-11T10:18:13.282Z,1018.74
2018-09-11T10:19:13.572Z,1018.73
2018-09-11T10:20:13.348Z,1018.74
2018-09-11T10:21:13.391Z,1018.75
2018-09-11T10:22:13.416Z,1018.73
2018-09-11T10:23:13.449Z,1018.71
2018-09-11T10:24:13.478Z,1018.70
2018-09-11T10:25:13.463Z,1018.67
2018-09-11T10:26:13.860Z,1018.73
2018-09-11T10:27:13.579Z,1018.69
2018-09-11T10:29:13.644Z,1018.70
2018-09-11T10:30:13.675Z,1018.66
2018-09-11T10:31:13.662Z,1018.64
2018-09-11T10:32:13.692Z,1018.65
2018-09-11T10:33:14.029Z,1018.65
2018-09-11T10:34:13.810Z,1018.59
2018-09-11T10:35:13.840Z,1018.67
2018-09-11T10:36:13.831Z,1018.63
2018-09-11T10:37:13.972Z,1018.58
2018-09-11T10:38:13.944Z,1018.62
2018-09-11T10:39:13.979Z,1018.62
2018-09-11T10:40:14.288Z,1018.64
2018-09-11T10:41:13.995Z,1018.58
2018-09-11T10:42:14.080Z,1018.54
2018-09-11T10:43:14.060Z,1018.57
2018-09-11T10:44:14.091Z,1018.57
2018-09-11T10:45:14.199Z,1018.55
2018-09-11T10:46:14.224Z,1018.60
2018-09-11T10:47:14.489Z,1018.53
2018-09-11T10:48:14.277Z,1018.56
2018-09-11T10:49:14.327Z,1018.54
2018-09-11T10:50:14.310Z,1018.62
2018-09-11T10:51:14.376Z,1018.60
2018-09-11T10:52:14.357Z,1018.61
2018-09-11T10:53:14.451Z,1018.58
2018-09-11T10:54:14.791Z,1018.62
2018-09-11T10:55:14.517Z,1018.52
2018-09-11T10:56:14.540Z,1018.56
2018-09-11T10:57:14.538Z,1018.60
2018-09-11T10:58:14.644Z,1018.52
2018-09-11T10:59:14.595Z,1018.51
2018-09-11T11:00:14.723Z,1018.53
2018-09-11T11:01:14.954Z,1018.52
2018-09-11T11:02:14.746Z,1018.55
2018-09-11T11:03:14.734Z,1018.50
2018-09-11T11:04:14.758Z,1018.48
2018-09-11T11:05:14.791Z,1018.49
2018-09-11T11:06:14.827Z,1018.51
2018-09-11T11:07:14.904Z,1018.50
2018-09-11T11:08:14.939Z,1018.48
2018-09-11T11:09:14.995Z,1018.47
2018-09-11T11:10:15.027Z,1018.41
2018-09-11T11:11:14.987Z,1018.33
2018-09-11T11:12:15.019Z,1018.37
2018-09-11T11:13:15.107Z,1018.35
2018-09-11T11:14:15.449Z,1018.29
2018-09-11T11:15:15.185Z,1018.23
2018-09-11T11:16:15.159Z,1018.22
2018-09-11T11:17:15.201Z,1018.21
2018-09-11T11:18:15.278Z,1018.25
2018-09-11T11:19:15.300Z,1018.18
2018-09-11T11:20:15.300Z,1018.28
2018-09-11T11:21:15.617Z,1018.25
2018-09-11T11:22:15.409Z,1018.31
2018-09-11T11:23:15.442Z,1018.26
2018-09-11T11:24:15.469Z,1018.30
2018-09-11T11:25:15.456Z,1018.26
2018-09-11T11:26:15.565Z,1018.30
2018-09-11T11:27:15.961Z,1018.25
2018-09-11T11:28:15.551Z,1018.30
2018-09-11T11:29:15.587Z,1018.30
2018-09-11T11:30:15.669Z,1018.22
2018-09-11T11:31:15.663Z,1018.26
2018-09-11T11:32:15.745Z,1018.25
2018-09-11T11:33:16.022Z,1018.17
2018-09-11T11:34:15.769Z,1018.18
2018-09-11T11:35:15.850Z,1018.17
2018-09-11T11:36:15.892Z,1018.19
2018-09-11T11:37:16.117Z,1018.17
2018-09-11T11:38:15.938Z,1018.25
2018-09-11T11:39:16.220Z,1018.14
2018-09-11T11:40:15.954Z,1018.24
2018-09-11T11:41:16.040Z,1018.25
2018-09-11T11:42:16.083Z,1018.28
2018-09-11T11:43:16.057Z,1018.26
2018-09-11T11:44:16.087Z,1018.27
2018-09-11T11:45:16.178Z,1018.28
2018-09-11T11:46:16.453Z,1018.33
2018-09-11T11:47:16.238Z,1018.24
2018-09-11T11:48:16.320Z,1018.30
2018-09-11T11:49:16.253Z,1018.26
2018-09-11T11:50:16.333Z,1018.29
2018-09-11T11:51:16.376Z,1018.28
2018-09-11T11:52:16.409Z,1018.25
2018-09-11T11:53:16.685Z,1018.22
2018-09-11T11:54:16.427Z,1018.19
2018-09-11T11:55:16.583Z,1018.19
2018-09-11T11:56:16.546Z,1018.16
2018-09-11T11:57:16.524Z,1018.18
2018-09-11T11:58:16.601Z,1018.09
2018-09-11T11:59:16.594Z,1018.19
2018-09-11T12:00:16.918Z,1018.21
2018-09-11T12:01:16.706Z,1018.17
2018-09-11T12:02:16.738Z,1018.19
2018-09-11T12:03:16.768Z,1018.16
2018-09-11T12:04:16.802Z,1018.19
2018-09-11T12:05:16.785Z,1018.17
2018-09-11T12:06:16.872Z,1018.16
2018-09-11T12:07:17.155Z,1018.15
2018-09-11T12:08:16.937Z,1018.15
2018-09-11T12:09:16.921Z,1018.16
2018-09-11T12:10:17.016Z,1018.11
2018-09-11T12:11:16.991Z,1018.13
2018-09-11T12:12:17.021Z,1018.06
2018-09-11T12:13:17.114Z,1018.07
2018-09-11T12:14:17.424Z,1018.07
2018-09-11T12:15:17.122Z,1018.04
2018-09-11T12:16:17.251Z,1018.07
2018-09-11T12:17:17.214Z,1018.07
2018-09-11T12:18:17.284Z,1018.00
2018-09-11T12:19:17.302Z,1018.04
2018-09-11T12:20:17.297Z,1018.02
2018-09-11T12:21:17.343Z,1018.00
2018-09-11T12:22:17.407Z,1018.00
2018-09-11T12:23:17.448Z,1017.96
2018-09-11T12:24:17.431Z,1017.92
2018-09-11T12:25:17.504Z,1017.93